sensor_id;sensor_type;location;lat;lon;timestamp;pressure;altitude;pressure_sealevel;temperature;humidity
64675;BME280;51090;51.512;11.332;2023-02-13T00:00:05;101566.81;;;9.76;100.00
64675;BME280;51090;51.512;11.332;2023-02-13T00:02:32;101574.78;;;9.76;100.00
64675;BME280;51090;51.512;11.332;2023-02-13T00:04:57;101572.53;;;9.71;100.00
64675;BME280;51090;51.512;11.332;2023-02-13T00:07:23;101573.63;;;9.69;100.00
64675;BME280;51090;51.512;11.332;2023-02-13T00:09:48;101570.97;;;9.69;100.00
64675;BME280;51090;51.512;11.332;2023-02-13T00:12:14;101572.66;;;9.70;100.00
64675;BME280;51090;51.512;11.332;2023-02-13T00:14:40;101560.59;;;9.66;100.00
64675;BME280;51090;51.512;11.332;2023-02-13T00:17:06;101560.75;;;9.64;100.00
64675;BME280;51090;51.512;11.332;2023-02-13T00:19:32;101563.53;;;9.63;100.00
64675;BME280;51090;51.512;11.332;2023-02-13T00:21:57;101562.09;;;9.58;100.00
64675;BME280;51090;51.512;11.332;2023-02-13T00:24:23;101554.00;;;9.60;100.00
64675;BME280;51090;51.512;11.332;2023-02-13T00:26:49;101552.19;;;9.60;100.00
64675;BME280;51090;51.512;11.332;2023-02-13T00:29:15;101554.00;;;9.60;100.00
64675;BME280;51090;51.512;11.332;2023-02-13T00:31:41;101556.81;;;9.58;100.00
64675;BME280;51090;51.512;11.332;2023-02-13T00:34:06;101551.50;;;9.58;100.00
64675;BME280;51090;51.512;11.332;2023-02-13T00:36:32;101553.19;;;9.59;100.00
64675;BME280;51090;51.512;11.332;2023-02-13T00:38:58;101551.09;;;9.63;100.00
64675;BME280;51090;51.512;11.332;2023-02-13T00:41:24;101547.97;;;9.69;100.00
64675;BME280;51090;51.512;11.332;2023-02-13T00:43:49;101555.13;;;9.78;100.00
64675;BME280;51090;51.512;11.332;2023-02-13T00:46:16;101555.94;;;9.90;100.00
64675;BME280;51090;51.512;11.332;2023-02-13T00:48:42;101537.13;;;9.93;100.00
64675;BME280;51090;51.512;11.332;2023-02-13T00:51:08;101552.38;;;10.01;100.00
64675;BME280;51090;51.512;11.332;2023-02-13T00:53:36;101545.03;;;10.05;100.00
64675;BME280;51090;51.512;11.332;2023-02-13T00:56:02;101549.06;;;10.09;100.00
64675;BME280;51090;51.512;11.332;2023-02-13T00:58:28;101551.72;;;10.09;100.00
64675;BME280;51090;51.512;11.332;2023-02-13T01:00:54;101552.56;;;10.09;100.00
64675;BME280;51090;51.512;11.332;2023-02-13T01:03:21;101555.66;;;10.14;100.00
64675;BME280;51090;51.512;11.332;2023-02-13T01:05:47;101552.19;;;10.14;100.00
64675;BME280;51090;51.512;11.332;2023-02-13T01:08:15;101561.56;;;10.18;100.00
64675;BME280;51090;51.512;11.332;2023-02-13T01:10:43;101550.25;;;10.16;100.00
64675;BME280;51090;51.512;11.332;2023-02-13T01:13:10;101559.41;;;10.12;100.00
64675;BME280;51090;51.512;11.332;2023-02-13T01:15:36;101560.28;;;10.12;100.00
64675;BME280;51090;51.512;11.332;2023-02-13T01:18:02;101555.81;;;10.13;100.00
64675;BME280;51090;51.512;11.332;2023-02-13T01:20:29;101557.47;;;10.14;100.00
64675;BME280;51090;51.512;11.332;2023-02-13T01:22:55;101552.19;;;10.14;100.00
64675;BME280;51090;51.512;11.332;2023-02-13T01:25:21;101548.81;;;10.12;100.00
64675;BME280;51090;51.512;11.332;2023-02-13T01:27:47;101548.56;;;10.15;100.00
64675;BME280;51090;51.512;11.332;2023-02-13T01:30:14;101549.13;;;10.18;100.00
64675;BME280;51090;51.512;11.332;2023-02-13T01:32:43;101559.22;;;10.24;100.00
64675;BME280;51090;51.512;11.332;2023-02-13T01:35:10;101560.06;;;10.25;100.00
64675;BME280;51090;51.512;11.332;2023-02-13T01:37:36;101552.13;;;10.25;100.00
64675;BME280;51090;51.512;11.332;2023-02-13T01:40:05;101556.22;;;10.29;100.00
64675;BME280;51090;51.512;11.332;2023-02-13T01:42:33;101519.63;;;10.02;100.00
64675;BME280;51090;51.512;11.332;2023-02-13T01:45:24;101551.41;;;10.23;100.00
64675;BME280;51090;51.512;11.332;2023-02-13T01:48:04;101554.88;;;10.23;100.00
64675;BME280;51090;51.512;11.332;2023-02-13T01:54:07;101543.13;;;10.16;100.00
64675;BME280;51090;51.512;11.332;2023-02-13T01:56:36;101533.63;;;10.14;100.00
64675;BME280;51090;51.512;11.332;2023-02-13T01:59:12;101545.91;;;10.15;100.00
64675;BME280;51090;51.512;11.332;2023-02-13T02:01:39;101534.88;;;10.10;100.00
64675;BME280;51090;51.512;11.332;2023-02-13T02:04:12;101522.84;;;10.06;100.00
64675;BME280;51090;51.512;11.332;2023-02-13T02:06:45;101527.03;;;10.08;100.00
64675;BME280;51090;51.512;11.332;2023-02-13T02:09:17;101522.28;;;10.12;100.00
64675;BME280;51090;51.512;11.332;2023-02-13T02:12:10;101523.41;;;10.09;100.00
64675;BME280;51090;51.512;11.332;2023-02-13T02:14:40;101527.88;;;10.09;100.00
64675;BME280;51090;51.512;11.332;2023-02-13T02:17:06;101517.66;;;10.04;100.00
64675;BME280;51090;51.512;11.332;2023-02-13T02:22:45;101535.44;;;10.13;100.00
64675;BME280;51090;51.512;11.332;2023-02-13T02:31:43;101518.97;;;10.10;100.00
64675;BME280;51090;51.512;11.332;2023-02-13T02:34:44;101514.75;;;10.07;100.00
64675;BME280;51090;51.512;11.332;2023-02-13T02:48:31;101511.19;;;10.18;100.00
64675;BME280;51090;51.512;11.332;2023-02-13T02:54:49;101509.09;;;10.21;100.00
64675;BME280;51090;51.512;11.332;2023-02-13T03:00:40;101506.97;;;10.15;100.00
64675;BME280;51090;51.512;11.332;2023-02-13T03:03:26;101502.63;;;10.14;100.00
64675;BME280;51090;51.512;11.332;2023-02-13T03:06:22;101499.16;;;10.14;100.00
64675;BME280;51090;51.512;11.332;2023-02-13T03:08:59;101503.00;;;10.00;100.00
64675;BME280;51090;51.512;11.332;2023-02-13T03:11:49;101506.69;;;9.88;100.00
64675;BME280;51090;51.512;11.332;2023-02-13T03:14:34;101504.84;;;9.88;100.00
64675;BME280;51090;51.512;11.332;2023-02-13T03:17:02;101505.56;;;9.90;100.00
64675;BME280;51090;51.512;11.332;2023-02-13T03:23:22;101511.25;;;10.07;100.00
64675;BME280;51090;51.512;11.332;2023-02-13T03:29:43;101504.00;;;10.09;100.00
64675;BME280;51090;51.512;11.332;2023-02-13T03:32:47;101500.63;;;10.07;100.00
64675;BME280;51090;51.512;11.332;2023-02-13T03:35:40;101512.69;;;10.11;100.00
64675;BME280;51090;51.512;11.332;2023-02-13T03:38:52;101501.75;;;10.04;100.00
64675;BME280;51090;51.512;11.332;2023-02-13T03:44:25;101528.00;;;10.07;100.00
64675;BME280;51090;51.512;11.332;2023-02-13T03:46:54;101517.53;;;10.06;100.00
64675;BME280;51090;51.512;11.332;2023-02-13T03:50:07;101516.81;;;10.03;100.00
64675;BME280;51090;51.512;11.332;2023-02-13T03:52:50;101522.84;;;10.06;100.00
64675;BME280;51090;51.512;11.332;2023-02-13T03:55:25;101515.16;;;10.02;100.00
64675;BME280;51090;51.512;11.332;2023-02-13T03:58:23;101520.06;;;10.07;100.00
64675;BME280;51090;51.512;11.332;2023-02-13T04:01:11;101527.31;;;10.05;100.00
64675;BME280;51090;51.512;11.332;2023-02-13T04:04:39;101519.91;;;10.09;100.00
64675;BME280;51090;51.512;11.332;2023-02-13T04:07:00;101528.41;;;10.02;100.00
64675;BME280;51090;51.512;11.332;2023-02-13T04:09:28;101528.41;;;10.02;100.00
64675;BME280;51090;51.512;11.332;2023-02-13T04:15:21;101529.13;;;10.05;100.00
64675;BME280;51090;51.512;11.332;2023-02-13T04:18:12;101524.66;;;10.05;100.00
64675;BME280;51090;51.512;11.332;2023-02-13T04:20:39;101530.22;;;10.02;100.00
64675;BME280;51090;51.512;11.332;2023-02-13T04:23:07;101521.28;;;10.03;100.00
64675;BME280;51090;51.512;11.332;2023-02-13T04:25:36;101521.84;;;10.07;100.00
64675;BME280;51090;51.512;11.332;2023-02-13T04:28:02;101522.13;;;10.03;100.00
64675;BME280;51090;51.512;11.332;2023-02-13T04:30:28;101518.75;;;10.01;100.00
64675;BME280;51090;51.512;11.332;2023-02-13T04:32:53;101520.28;;;10.04;100.00
64675;BME280;51090;51.512;11.332;2023-02-13T04:35:20;101517.66;;;10.04;100.00
64675;BME280;51090;51.512;11.332;2023-02-13T04:37:46;101519.47;;;10.03;100.00
64675;BME280;51090;51.512;11.332;2023-02-13T04:40:12;101506.75;;;9.97;100.00
64675;BME280;51090;51.512;11.332;2023-02-13T04:42:37;101514.16;;;10.03;100.00
64675;BME280;51090;51.512;11.332;2023-02-13T04:45:03;101518.63;;;10.03;100.00
64675;BME280;51090;51.512;11.332;2023-02-13T04:47:29;101520.44;;;10.02;100.00
64675;BME280;51090;51.512;11.332;2023-02-13T04:49:55;101512.63;;;10.01;100.00
64675;BME280;51090;51.512;11.332;2023-02-13T04:52:20;101513.44;;;10.01;100.00
64675;BME280;51090;51.512;11.332;2023-02-13T04:54:46;101514.16;;;10.03;100.00
64675;BME280;51090;51.512;11.332;2023-02-13T04:57:12;101501.28;;;9.99;100.00
64675;BME280;51090;51.512;11.332;2023-02-13T04:59:38;101508.84;;;10.03;100.00
64675;BME280;51090;51.512;11.332;2023-02-13T05:02:04;101505.50;;;10.01;100.00
64675;BME280;51090;51.512;11.332;2023-02-13T05:04:29;101495.03;;;10.00;100.00
64675;BME280;51090;51.512;11.332;2023-02-13T05:06:55;101501.91;;;10.02;100.00
64675;BME280;51090;51.512;11.332;2023-02-13T05:09:21;101502.84;;;10.01;100.00
64675;BME280;51090;51.512;11.332;2023-02-13T05:11:49;101501.19;;;10.00;100.00
64675;BME280;51090;51.512;11.332;2023-02-13T05:14:15;101505.50;;;10.01;100.00
64675;BME280;51090;51.512;11.332;2023-02-13T05:16:41;101496.72;;;10.01;100.00
64675;BME280;51090;51.512;11.332;2023-02-13T05:19:06;101502.59;;;10.05;100.00
64675;BME280;51090;51.512;11.332;2023-02-13T05:21:32;101506.22;;;10.03;100.00
64675;BME280;51090;51.512;11.332;2023-02-13T05:24:16;101502.00;;;10.01;100.00
64675;BME280;51090;51.512;11.332;2023-02-13T05:26:42;101509.13;;;10.00;100.00
64675;BME280;51090;51.512;11.332;2023-02-13T05:29:09;101511.78;;;10.00;100.00
64675;BME280;51090;51.512;11.332;2023-02-13T05:31:45;101503.72;;;10.02;100.00
64675;BME280;51090;51.512;11.332;2023-02-13T05:34:11;101502.00;;;10.01;100.00
64675;BME280;51090;51.512;11.332;2023-02-13T05:36:37;101509.25;;;9.99;100.00
64675;BME280;51090;51.512;11.332;2023-02-13T05:39:03;101496.72;;;10.01;100.00
64675;BME280;51090;51.512;11.332;2023-02-13T05:41:29;101501.28;;;9.99;100.00
64675;BME280;51090;51.512;11.332;2023-02-13T05:43:54;101499.63;;;9.98;100.00
64675;BME280;51090;51.512;11.332;2023-02-13T05:46:20;101504.94;;;9.98;100.00
64675;BME280;51090;51.512;11.332;2023-02-13T05:48:46;101502.41;;;9.96;100.00
64675;BME280;51090;51.512;11.332;2023-02-13T05:51:11;101508.69;;;9.95;100.00
64675;BME280;51090;51.512;11.332;2023-02-13T05:53:37;101502.66;;;9.93;100.00
64675;BME280;51090;51.512;11.332;2023-02-13T05:58:36;101513.88;;;9.97;100.00
64675;BME280;51090;51.512;11.332;2023-02-13T06:01:03;101511.22;;;9.97;100.00
64675;BME280;51090;51.512;11.332;2023-02-13T06:03:31;101510.63;;;9.93;100.00
64675;BME280;51090;51.512;11.332;2023-02-13T06:05:58;101508.34;;;9.89;100.00
64675;BME280;51090;51.512;11.332;2023-02-13T06:08:24;101511.72;;;9.91;100.00
64675;BME280;51090;51.512;11.332;2023-02-13T06:10:50;101512.69;;;9.90;100.00
64675;BME280;51090;51.512;11.332;2023-02-13T06:13:17;101511.13;;;9.87;100.00
64675;BME280;51090;51.512;11.332;2023-02-13T06:15:42;101516.25;;;9.79;100.00
64675;BME280;51090;51.512;11.332;2023-02-13T06:18:09;101513.84;;;9.76;100.00
64675;BME280;51090;51.512;11.332;2023-02-13T06:20:35;101518.44;;;9.74;100.00
64675;BME280;51090;51.512;11.332;2023-02-13T06:23:01;101516.75;;;9.73;100.00
64675;BME280;51090;51.512;11.332;2023-02-13T06:25:27;101518.44;;;9.74;100.00
64675;BME280;51090;51.512;11.332;2023-02-13T06:27:53;101518.44;;;9.74;100.00
64675;BME280;51090;51.512;11.332;2023-02-13T06:30:19;101517.34;;;9.76;100.00
64675;BME280;51090;51.512;11.332;2023-02-13T06:32:47;101517.66;;;9.83;100.00
64675;BME280;51090;51.512;11.332;2023-02-13T06:35:14;101516.09;;;9.80;100.00
64675;BME280;51090;51.512;11.332;2023-02-13T06:37:41;101522.25;;;9.81;100.00
64675;BME280;51090;51.512;11.332;2023-02-13T06:40:12;101521.13;;;9.84;100.00
64675;BME280;51090;51.512;11.332;2023-02-13T06:42:38;101521.28;;;9.82;100.00
64675;BME280;51090;51.512;11.332;2023-02-13T06:45:05;101527.16;;;9.86;100.00
64675;BME280;51090;51.512;11.332;2023-02-13T06:47:30;101533.19;;;9.88;100.00
64675;BME280;51090;51.512;11.332;2023-02-13T06:49:56;101526.91;;;9.89;100.00
64675;BME280;51090;51.512;11.332;2023-02-13T06:52:22;101525.09;;;9.89;100.00
64675;BME280;51090;51.512;11.332;2023-02-13T06:54:48;101532.06;;;9.90;100.00
64675;BME280;51090;51.512;11.332;2023-02-13T06:57:14;101534.47;;;9.93;100.00
64675;BME280;51090;51.512;11.332;2023-02-13T06:59:41;101530.97;;;9.93;100.00
64675;BME280;51090;51.512;11.332;2023-02-13T07:02:11;101540.94;;;10.00;100.00
64675;BME280;51090;51.512;11.332;2023-02-13T07:04:37;101537.66;;;9.87;100.00
64675;BME280;51090;51.512;11.332;2023-02-13T07:07:04;101532.84;;;9.81;100.00
64675;BME280;51090;51.512;11.332;2023-02-13T07:09:30;101543.97;;;9.75;100.00
64675;BME280;51090;51.512;11.332;2023-02-13T07:11:57;101545.44;;;9.68;100.00
64675;BME280;51090;51.512;11.332;2023-02-13T07:14:22;101549.06;;;9.67;100.00
64675;BME280;51090;51.512;11.332;2023-02-13T07:16:48;101555.84;;;9.59;100.00
64675;BME280;51090;51.512;11.332;2023-02-13T07:19:14;101555.38;;;9.54;100.00
64675;BME280;51090;51.512;11.332;2023-02-13T07:21:39;101548.88;;;9.47;100.00
64675;BME280;51090;51.512;11.332;2023-02-13T07:24:05;101528.00;;;9.33;100.00
64675;BME280;51090;51.512;11.332;2023-02-13T07:26:31;101557.59;;;9.38;100.00
64675;BME280;51090;51.512;11.332;2023-02-13T07:28:57;101559.53;;;9.36;100.00
64675;BME280;51090;51.512;11.332;2023-02-13T07:31:23;101553.00;;;9.40;100.00
64675;BME280;51090;51.512;11.332;2023-02-13T07:33:48;101564.47;;;9.41;100.00
64675;BME280;51090;51.512;11.332;2023-02-13T07:36:14;101563.56;;;9.51;100.00
64675;BME280;51090;51.512;11.332;2023-02-13T07:38:40;101571.63;;;9.50;100.00
64675;BME280;51090;51.512;11.332;2023-02-13T07:41:06;101569.97;;;9.49;100.00
64675;BME280;51090;51.512;11.332;2023-02-13T07:43:32;101549.09;;;9.55;100.00
64675;BME280;51090;51.512;11.332;2023-02-13T07:45:59;101574.56;;;9.68;100.00
64675;BME280;51090;51.512;11.332;2023-02-13T07:48:26;101566.88;;;9.65;100.00
64675;BME280;51090;51.512;11.332;2023-02-13T07:50:53;101569.53;;;9.65;100.00
64675;BME280;51090;51.512;11.332;2023-02-13T07:53:19;101561.00;;;9.61;100.00
64675;BME280;51090;51.512;11.332;2023-02-13T07:55:45;101566.06;;;9.64;100.00
64675;BME280;51090;51.512;11.332;2023-02-13T07:58:11;101566.38;;;9.71;100.00
64675;BME280;51090;51.512;11.332;2023-02-13T08:00:37;101574.56;;;9.79;100.00
64675;BME280;51090;51.512;11.332;2023-02-13T08:03:03;101569.94;;;9.81;100.00
64675;BME280;51090;51.512;11.332;2023-02-13T08:05:30;101571.84;;;9.90;100.00
64675;BME280;51090;51.512;11.332;2023-02-13T08:07:56;101572.28;;;9.95;100.00
64675;BME280;51090;51.512;11.332;2023-02-13T08:10:22;101574.56;;;10.00;100.00
64675;BME280;51090;51.512;11.332;2023-02-13T08:13:07;101571.91;;;10.00;100.00
64675;BME280;51090;51.512;11.332;2023-02-13T08:15:34;101575.50;;;9.99;100.00
64675;BME280;51090;51.512;11.332;2023-02-13T08:17:59;101578.41;;;9.96;100.00
64675;BME280;51090;51.512;11.332;2023-02-13T08:20:25;101578.03;;;10.00;100.00
64675;BME280;51090;51.512;11.332;2023-02-13T08:22:51;101577.41;;;10.08;100.00
64675;BME280;51090;51.512;11.332;2023-02-13T08:25:17;101577.72;;;10.15;100.00
64675;BME280;51090;51.512;11.332;2023-02-13T08:27:44;101580.84;;;10.20;100.00
64675;BME280;51090;51.512;11.332;2023-02-13T08:30:11;101585.16;;;10.21;100.00
64675;BME280;51090;51.512;11.332;2023-02-13T08:32:37;101587.09;;;10.19;100.00
64675;BME280;51090;51.512;11.332;2023-02-13T08:35:03;101581.78;;;10.19;100.00
64675;BME280;51090;51.512;11.332;2023-02-13T08:37:28;101586.00;;;10.21;100.00
64675;BME280;51090;51.512;11.332;2023-02-13T08:39:54;101590.41;;;10.32;100.00
64675;BME280;51090;51.512;11.332;2023-02-13T08:42:20;101592.19;;;10.43;100.00
64675;BME280;51090;51.512;11.332;2023-02-13T08:44:45;101583.28;;;10.54;100.00
64675;BME280;51090;51.512;11.332;2023-02-13T08:47:11;101582.75;;;10.60;100.00
64675;BME280;51090;51.512;11.332;2023-02-13T08:49:37;101585.31;;;10.71;100.00
64675;BME280;51090;51.512;11.332;2023-02-13T08:52:03;101576.66;;;10.79;100.00
64675;BME280;51090;51.512;11.332;2023-02-13T08:54:29;101579.31;;;10.79;100.00
64675;BME280;51090;51.512;11.332;2023-02-13T08:56:55;101585.22;;;10.82;100.00
64675;BME280;51090;51.512;11.332;2023-02-13T08:59:20;101589.88;;;10.90;100.00
64675;BME280;51090;51.512;11.332;2023-02-13T09:01:46;101585.28;;;10.92;100.00
64675;BME280;51090;51.512;11.332;2023-02-13T09:04:13;101581.22;;;10.98;100.00
64675;BME280;51090;51.512;11.332;2023-02-13T09:06:43;101580.94;;;11.01;100.00
64675;BME280;51090;51.512;11.332;2023-02-13T09:09:09;101579.00;;;11.03;100.00
64675;BME280;51090;51.512;11.332;2023-02-13T09:11:34;101579.13;;;11.01;100.00
64675;BME280;51090;51.512;11.332;2023-02-13T09:14:00;101588.94;;;11.10;100.00
64675;BME280;51090;51.512;11.332;2023-02-13T09:16:26;101578.59;;;11.17;100.00
64675;BME280;51090;51.512;11.332;2023-02-13T09:18:52;101588.00;;;11.21;100.00
64675;BME280;51090;51.512;11.332;2023-02-13T09:21:21;101592.50;;;11.30;100.00
64675;BME280;51090;51.512;11.332;2023-02-13T09:23:48;101581.59;;;11.33;100.00
64675;BME280;51090;51.512;11.332;2023-02-13T09:26:16;101592.06;;;11.35;100.00
64675;BME280;51090;51.512;11.332;2023-02-13T09:28:42;101585.38;;;11.31;100.00
64675;BME280;51090;51.512;11.332;2023-02-13T09:31:18;101579.06;;;11.32;100.00
64675;BME280;51090;51.512;11.332;2023-02-13T09:33:45;101590.28;;;11.36;100.00
64675;BME280;51090;51.512;11.332;2023-02-13T09:36:16;101595.84;;;11.42;100.00
64675;BME280;51090;51.512;11.332;2023-02-13T09:38:44;101598.66;;;11.41;100.00
64675;BME280;51090;51.512;11.332;2023-02-13T09:41:33;101594.91;;;11.43;100.00
64675;BME280;51090;51.512;11.332;2023-02-13T09:44:14;101593.91;;;11.44;100.00
64675;BME280;51090;51.512;11.332;2023-02-13T09:47:03;101593.19;;;11.32;100.00
64675;BME280;51090;51.512;11.332;2023-02-13T09:49:34;101602.25;;;11.20;100.00
64675;BME280;51090;51.512;11.332;2023-02-13T09:52:01;101594.09;;;11.12;100.00
64675;BME280;51090;51.512;11.332;2023-02-13T09:54:27;101599.94;;;10.96;100.00
64675;BME280;51090;51.512;11.332;2023-02-13T09:57:28;101599.38;;;10.93;100.00
64675;BME280;51090;51.512;11.332;2023-02-13T10:00:32;101601.59;;;10.87;100.00
64675;BME280;51090;51.512;11.332;2023-02-13T10:03:30;101597.06;;;10.78;100.00
64675;BME280;51090;51.512;11.332;2023-02-13T10:06:31;101601.16;;;10.82;100.00
64675;BME280;51090;51.512;11.332;2023-02-13T10:09:37;101604.75;;;10.81;100.00
64675;BME280;51090;51.512;11.332;2023-02-13T10:12:27;101606.31;;;10.84;100.00
64675;BME280;51090;51.512;11.332;2023-02-13T10:15:27;101610.38;;;10.88;100.00
64675;BME280;51090;51.512;11.332;2023-02-13T10:18:04;101600.16;;;10.83;100.00
64675;BME280;51090;51.512;11.332;2023-02-13T10:20:43;101601.53;;;10.78;100.00
64675;BME280;51090;51.512;11.332;2023-02-13T10:23:43;101601.09;;;10.73;100.00
64675;BME280;51090;51.512;11.332;2023-02-13T10:26:24;101602.91;;;10.72;100.00
64675;BME280;51090;51.512;11.332;2023-02-13T10:29:20;101591.72;;;10.68;100.00
64675;BME280;51090;51.512;11.332;2023-02-13T10:32:09;101593.19;;;10.82;100.00
64675;BME280;51090;51.512;11.332;2023-02-13T10:34:44;101596.44;;;10.96;100.00
64675;BME280;51090;51.512;11.332;2023-02-13T10:37:18;101584.41;;;10.92;100.00
64675;BME280;51090;51.512;11.332;2023-02-13T10:39:48;101592.69;;;10.98;100.00
64675;BME280;51090;51.512;11.332;2023-02-13T10:42:44;101587.94;;;11.02;100.00
64675;BME280;51090;51.512;11.332;2023-02-13T10:48:29;101570.97;;;11.33;100.00
64675;BME280;51090;51.512;11.332;2023-02-13T10:51:34;101586.38;;;11.59;100.00
64675;BME280;51090;51.512;11.332;2023-02-13T10:54:48;101582.75;;;11.80;100.00
64675;BME280;51090;51.512;11.332;2023-02-13T10:58:07;101575.88;;;12.06;100.00
64675;BME280;51090;51.512;11.332;2023-02-13T11:00:47;101571.41;;;12.16;100.00
64675;BME280;51090;51.512;11.332;2023-02-13T11:03:24;101570.81;;;12.23;100.00
64675;BME280;51090;51.512;11.332;2023-02-13T11:05:52;101572.19;;;12.36;100.00
64675;BME280;51090;51.512;11.332;2023-02-13T11:08:40;101570.19;;;12.48;100.00
64675;BME280;51090;51.512;11.332;2023-02-13T11:11:39;101574.22;;;12.62;100.00
64675;BME280;51090;51.512;11.332;2023-02-13T11:14:21;101576.97;;;12.70;100.00
64675;BME280;51090;51.512;11.332;2023-02-13T11:16:57;101569.41;;;12.75;100.00
64675;BME280;51090;51.512;11.332;2023-02-13T11:19:39;101574.38;;;12.88;100.00
64675;BME280;51090;51.512;11.332;2023-02-13T11:22:30;101568.75;;;12.91;100.00
64675;BME280;51090;51.512;11.332;2023-02-13T11:25:21;101562.16;;;12.95;95.14
64675;BME280;51090;51.512;11.332;2023-02-13T11:27:50;101564.56;;;12.89;98.63
64675;BME280;51090;51.512;11.332;2023-02-13T11:33:05;101552.38;;;13.14;95.04
64675;BME280;51090;51.512;11.332;2023-02-13T11:35:35;101563.81;;;13.24;98.39
64675;BME280;51090;51.512;11.332;2023-02-13T11:40:44;101553.34;;;13.40;93.24
64675;BME280;51090;51.512;11.332;2023-02-13T11:43:26;101557.31;;;13.36;92.21
64675;BME280;51090;51.512;11.332;2023-02-13T11:46:23;101553.03;;;13.43;91.40
64675;BME280;51090;51.512;11.332;2023-02-13T11:48:59;101542.47;;;13.52;91.96
64675;BME280;51090;51.512;11.332;2023-02-13T11:54:05;101541.13;;;13.73;93.84
64675;BME280;51090;51.512;11.332;2023-02-13T11:59:02;101533.00;;;13.75;90.95
64675;BME280;51090;51.512;11.332;2023-02-13T12:01:42;101529.78;;;13.71;87.50
64675;BME280;51090;51.512;11.332;2023-02-13T12:04:16;101531.47;;;13.72;92.40
64675;BME280;51090;51.512;11.332;2023-02-13T12:09:46;101529.19;;;13.78;91.57
64675;BME280;51090;51.512;11.332;2023-02-13T12:12:34;101524.44;;;13.71;85.46
64675;BME280;51090;51.512;11.332;2023-02-13T12:15:20;101527.88;;;13.64;88.94
64675;BME280;51090;51.512;11.332;2023-02-13T12:18:03;101527.38;;;13.60;88.17
64675;BME280;51090;51.512;11.332;2023-02-13T12:36:29;101512.50;;;13.22;87.82
64675;BME280;51090;51.512;11.332;2023-02-13T12:41:45;101510.13;;;13.19;90.32
64675;BME280;51090;51.512;11.332;2023-02-13T12:44:28;101509.00;;;13.21;92.92
64675;BME280;51090;51.512;11.332;2023-02-13T12:47:09;101503.06;;;13.27;88.77
64675;BME280;51090;51.512;11.332;2023-02-13T12:50:13;101503.59;;;13.13;83.97
64675;BME280;51090;51.512;11.332;2023-02-13T12:55:49;101503.50;;;13.05;88.13
64675;BME280;51090;51.512;11.332;2023-02-13T12:58:39;101499.00;;;13.05;88.25
64675;BME280;51090;51.512;11.332;2023-02-13T13:01:49;101470.66;;;12.86;89.92
64675;BME280;51090;51.512;11.332;2023-02-13T13:13:46;101493.31;;;13.00;90.06
64675;BME280;51090;51.512;11.332;2023-02-13T13:16:41;101489.94;;;12.98;88.96
64675;BME280;51090;51.512;11.332;2023-02-13T13:22:21;101483.94;;;12.96;91.75
64675;BME280;51090;51.512;11.332;2023-02-13T13:31:15;101490.00;;;12.89;92.22
64675;BME280;51090;51.512;11.332;2023-02-13T13:33:46;101479.66;;;12.85;90.67
64675;BME280;51090;51.512;11.332;2023-02-13T13:45:44;101470.66;;;12.86;90.94
64675;BME280;51090;51.512;11.332;2023-02-13T13:51:17;101470.00;;;12.84;92.90
64675;BME280;51090;51.512;11.332;2023-02-13T14:08:03;101463.44;;;12.79;91.69
64675;BME280;51090;51.512;11.332;2023-02-13T14:11:00;101464.44;;;12.78;92.35
64675;BME280;51090;51.512;11.332;2023-02-13T14:13:39;101452.38;;;12.74;90.78
64675;BME280;51090;51.512;11.332;2023-02-13T14:16:11;101456.19;;;12.71;92.80
64675;BME280;51090;51.512;11.332;2023-02-13T14:18:37;101456.19;;;12.71;94.38
64675;BME280;51090;51.512;11.332;2023-02-13T14:21:08;101437.03;;;12.68;94.30
64675;BME280;51090;51.512;11.332;2023-02-13T14:31:32;101453.84;;;12.68;91.86
64675;BME280;51090;51.512;11.332;2023-02-13T14:34:07;101451.63;;;12.63;92.45
64675;BME280;51090;51.512;11.332;2023-02-13T14:36:44;101450.66;;;12.64;93.33
64675;BME280;51090;51.512;11.332;2023-02-13T14:39:33;101446.00;;;12.67;92.47
64675;BME280;51090;51.512;11.332;2023-02-13T14:42:03;101440.00;;;12.64;93.00
64675;BME280;51090;51.512;11.332;2023-02-13T14:44:50;101441.13;;;12.62;90.24
64675;BME280;51090;51.512;11.332;2023-02-13T14:47:20;101439.22;;;12.54;93.12
64675;BME280;51090;51.512;11.332;2023-02-13T14:49:49;101444.53;;;12.54;93.10
64675;BME280;51090;51.512;11.332;2023-02-13T14:52:46;101454.34;;;12.54;91.94
64675;BME280;51090;51.512;11.332;2023-02-13T14:55:33;101453.78;;;12.50;93.44
64675;BME280;51090;51.512;11.332;2023-02-13T14:58:27;101460.69;;;12.43;91.72
64675;BME280;51090;51.512;11.332;2023-02-13T15:03:45;101458.53;;;12.29;93.84
64675;BME280;51090;51.512;11.332;2023-02-13T15:06:29;101451.41;;;12.19;93.97
64675;BME280;51090;51.512;11.332;2023-02-13T15:09:02;101457.84;;;12.17;95.33
64675;BME280;51090;51.512;11.332;2023-02-13T15:11:41;101452.25;;;12.20;95.34
64675;BME280;51090;51.512;11.332;2023-02-13T15:14:35;101446.38;;;12.16;95.20
64675;BME280;51090;51.512;11.332;2023-02-13T15:17:32;101447.13;;;12.09;95.31
64675;BME280;51090;51.512;11.332;2023-02-13T15:20:25;101443.94;;;12.05;95.17
64675;BME280;51090;51.512;11.332;2023-02-13T15:22:52;101436.53;;;11.89;96.99
64675;BME280;51090;51.512;11.332;2023-02-13T15:27:56;101446.50;;;11.87;98.16
64675;BME280;51090;51.512;11.332;2023-02-13T15:30:33;101450.25;;;11.85;97.30